Aviation Digital Data Service (ADDS)

Output produced by METARs form (1710 UTC 29 May 2017)
found at http://www.aviationweather.gov/adds/metars/
 
DBBB 291600Z 22012KT 9999 SCT014 FEW023CB 30/26 Q1010 NOSIG
TAF DBBB 291100Z 2912/3018 22010KT 9999 SCT013 
     TEMPO 2914/2920 TS BKN012 FEW023CB 
     TEMPO 3004/3010 TS BKN010 FEW023CB